createdAt,value
2023-02-11T00:00:59.597Z,2.58
2023-02-11T00:03:26.313Z,2.51
2023-02-11T00:06:04.697Z,2.52
2023-02-11T00:08:31.317Z,2.28
2023-02-11T00:10:58.715Z,2.47
2023-02-11T00:13:25.863Z,2.59
2023-02-11T00:15:53.301Z,2.65
2023-02-11T00:18:19.867Z,2.65
2023-02-11T00:20:46.421Z,2.82
2023-02-11T00:23:13.413Z,2.85
2023-02-11T00:25:44.910Z,2.90
2023-02-11T00:28:12.029Z,2.81
2023-02-11T00:30:38.751Z,3.16
2023-02-11T00:33:05.351Z,3.06
2023-02-11T00:35:31.878Z,3.14
2023-02-11T00:37:58.613Z,3.07
2023-02-11T00:40:25.207Z,3.09
2023-02-11T00:42:51.764Z,2.83
2023-02-11T00:45:20.907Z,2.99
2023-02-11T00:47:47.813Z,3.10
2023-02-11T00:50:14.373Z,3.23
2023-02-11T00:52:40.891Z,3.10
2023-02-11T00:55:07.703Z,3.27
2023-02-11T00:57:34.474Z,3.43
2023-02-11T01:00:01.194Z,3.37
2023-02-11T01:02:27.798Z,3.22
2023-02-11T01:04:54.549Z,3.31
2023-02-11T01:07:21.138Z,3.47
2023-02-11T01:09:47.624Z,3.48
2023-02-11T01:12:14.279Z,3.45
2023-02-11T01:14:41.179Z,3.45
2023-02-11T01:17:07.740Z,3.39
2023-02-11T01:19:34.335Z,3.46
2023-02-11T01:22:00.925Z,3.59
2023-02-11T01:24:27.447Z,3.62
2023-02-11T01:26:54.137Z,3.56
2023-02-11T01:29:20.707Z,3.53
2023-02-11T01:31:47.850Z,3.62
2023-02-11T01:34:14.420Z,3.67
2023-02-11T01:36:41.577Z,3.60
2023-02-11T01:39:09.297Z,3.28
2023-02-11T01:41:36.827Z,3.29
2023-02-11T01:44:25.359Z,3.30
2023-02-11T01:46:52.358Z,3.10
2023-02-11T01:49:25.150Z,3.25
2023-02-11T01:52:15.093Z,3.17
2023-02-11T01:55:04.497Z,2.96
2023-02-11T01:57:33.802Z,2.93
2023-02-11T02:00:17.954Z,2.96
2023-02-11T02:02:51.914Z,2.84
2023-02-11T02:05:27.471Z,2.88
2023-02-11T02:08:24.549Z,2.88
2023-02-11T02:10:56.371Z,2.74
2023-02-11T02:13:24.291Z,2.95
2023-02-11T02:15:53.953Z,2.87
2023-02-11T02:18:31.574Z,2.81
2023-02-11T02:21:32.750Z,2.73
2023-02-11T02:24:36.663Z,2.74
2023-02-11T02:27:27.467Z,2.78
2023-02-11T02:30:29.748Z,2.72
2023-02-11T02:33:28.721Z,2.65
2023-02-11T02:36:00.122Z,2.62
2023-02-11T02:38:53.049Z,2.88
2023-02-11T02:41:24.714Z,2.86
2023-02-11T02:43:51.911Z,2.72
2023-02-11T02:46:27.720Z,2.87
2023-02-11T02:48:55.361Z,2.93
2023-02-11T02:51:43.201Z,2.66
2023-02-11T02:54:31.356Z,2.84
2023-02-11T02:57:11.538Z,2.76
2023-02-11T03:00:08.842Z,2.75
2023-02-11T03:02:47.938Z,2.79
2023-02-11T03:05:19.415Z,2.98
2023-02-11T03:07:58.807Z,3.11
2023-02-11T03:10:33.287Z,2.96
2023-02-11T03:13:03.037Z,3.01
2023-02-11T03:15:33.999Z,2.84
2023-02-11T03:18:03.474Z,3.08
2023-02-11T03:20:33.364Z,2.90
2023-02-11T03:23:12.617Z,2.95
2023-02-11T03:25:45.688Z,2.92
2023-02-11T03:28:28.718Z,2.90
2023-02-11T03:31:25.655Z,2.86
2023-02-11T03:34:03.577Z,2.87
2023-02-11T03:36:45.791Z,2.74
2023-02-11T03:39:16.032Z,2.77
2023-02-11T03:41:43.901Z,2.88
2023-02-11T03:44:14.983Z,2.83
2023-02-11T03:46:48.127Z,2.96
2023-02-11T03:49:17.256Z,2.86
2023-02-11T03:51:44.555Z,2.77
2023-02-11T03:54:15.235Z,3.03
2023-02-11T03:57:02.376Z,2.91
2023-02-11T03:59:29.260Z,2.95
2023-02-11T04:01:56.509Z,2.96
2023-02-11T04:04:23.138Z,2.88
2023-02-11T04:06:51.947Z,2.93
2023-02-11T04:09:18.569Z,3.09
2023-02-11T04:11:45.263Z,3.34
2023-02-11T04:14:11.864Z,3.26
2023-02-11T04:16:38.410Z,3.19
2023-02-11T04:19:05.042Z,3.26
2023-02-11T04:21:31.617Z,3.23
2023-02-11T04:23:58.148Z,3.36
2023-02-11T04:26:24.643Z,3.36
2023-02-11T04:28:51.396Z,3.40
2023-02-11T04:31:18.009Z,3.26
2023-02-11T04:33:44.570Z,3.28
2023-02-11T04:36:11.118Z,3.17
2023-02-11T04:38:37.646Z,3.19
2023-02-11T04:41:05.547Z,3.45
2023-02-11T04:43:32.160Z,3.24
2023-02-11T04:45:58.973Z,3.30
2023-02-11T04:48:26.219Z,3.29
2023-02-11T04:50:52.850Z,3.32
2023-02-11T04:53:19.465Z,3.24
2023-02-11T04:55:50.859Z,3.25
2023-02-11T04:58:18.975Z,3.31
2023-02-11T05:00:46.075Z,3.26
2023-02-11T05:03:13.110Z,3.24
2023-02-11T05:05:41.119Z,3.31
2023-02-11T05:08:08.935Z,3.23
2023-02-11T05:10:35.880Z,3.26
2023-02-11T05:13:02.543Z,3.40
2023-02-11T05:15:30.585Z,3.36
2023-02-11T05:17:57.469Z,3.36
2023-02-11T05:20:23.965Z,3.38
2023-02-11T05:22:50.563Z,3.15
2023-02-11T05:25:17.053Z,3.37
2023-02-11T05:27:43.730Z,3.46
2023-02-11T05:30:10.882Z,3.67
2023-02-11T05:32:37.894Z,3.90
2023-02-11T05:35:04.836Z,3.79
2023-02-11T05:37:31.508Z,3.63
2023-02-11T05:39:58.016Z,3.41
2023-02-11T05:42:24.595Z,3.51
2023-02-11T05:44:51.240Z,3.39
2023-02-11T05:47:18.032Z,3.56
2023-02-11T05:49:44.815Z,3.51
2023-02-11T05:52:11.339Z,3.56
2023-02-11T05:54:38.190Z,3.27
2023-02-11T05:57:04.846Z,3.40
2023-02-11T05:59:31.489Z,3.40
2023-02-11T06:01:58.004Z,3.41
2023-02-11T06:04:24.845Z,3.27
2023-02-11T06:06:51.524Z,3.32
2023-02-11T06:09:18.016Z,3.46
2023-02-11T06:11:44.683Z,3.45
2023-02-11T06:14:11.249Z,3.52
2023-02-11T06:16:37.884Z,3.32
2023-02-11T06:19:04.420Z,3.57
2023-02-11T06:21:43.027Z,3.50
2023-02-11T06:24:10.887Z,3.60
2023-02-11T06:26:37.469Z,3.38
2023-02-11T06:29:04.057Z,3.34
2023-02-11T06:31:30.724Z,3.24
2023-02-11T06:33:58.443Z,3.29
2023-02-11T06:36:25.285Z,3.24
2023-02-11T06:38:53.177Z,3.23
2023-02-11T06:41:21.659Z,3.08
2023-02-11T06:43:48.954Z,3.02
2023-02-11T06:46:15.634Z,2.95
2023-02-11T06:48:44.730Z,2.82
2023-02-11T06:51:13.594Z,3.00
2023-02-11T06:53:42.649Z,2.95
2023-02-11T06:56:12.572Z,2.84
2023-02-11T06:58:39.287Z,2.92
2023-02-11T07:01:14.590Z,3.05
2023-02-11T07:03:43.321Z,3.06
2023-02-11T07:06:15.936Z,3.09
2023-02-11T07:08:43.250Z,3.37
2023-02-11T07:11:26.938Z,3.32
2023-02-11T07:13:56.460Z,3.37
2023-02-11T07:16:24.376Z,3.38
2023-02-11T07:18:51.083Z,3.57
2023-02-11T07:21:20.584Z,3.79
2023-02-11T07:23:48.372Z,3.54
2023-02-11T07:26:18.195Z,3.72
2023-02-11T07:28:45.348Z,3.68
2023-02-11T07:31:20.834Z,3.87
2023-02-11T07:33:47.582Z,3.76
2023-02-11T07:36:15.929Z,3.58
2023-02-11T07:38:42.906Z,3.74
2023-02-11T07:41:15.978Z,3.72
2023-02-11T07:43:43.167Z,3.78
2023-02-11T07:46:15.815Z,4.15
2023-02-11T07:48:42.270Z,4.04
2023-02-11T07:51:14.200Z,4.07
2023-02-11T07:53:41.150Z,4.42
2023-02-11T07:56:09.321Z,4.53
2023-02-11T07:58:36.789Z,4.58
2023-02-11T08:01:05.034Z,5.02
2023-02-11T08:03:32.903Z,5.53
2023-02-11T08:06:04.019Z,5.20
2023-02-11T08:08:30.564Z,5.19
2023-02-11T08:10:57.077Z,5.19
2023-02-11T08:13:23.729Z,4.92
2023-02-11T08:15:50.511Z,4.87
2023-02-11T08:18:17.219Z,5.12
2023-02-11T08:20:43.716Z,5.22
2023-02-11T08:23:10.269Z,5.19
2023-02-11T08:25:36.855Z,5.47
2023-02-11T08:28:03.641Z,5.37
2023-02-11T08:30:30.410Z,5.20
2023-02-11T08:32:56.997Z,5.41
2023-02-11T08:35:23.543Z,5.75
2023-02-11T08:37:50.143Z,5.52
2023-02-11T08:40:17.038Z,5.35
2023-02-11T08:42:43.703Z,6.03
2023-02-11T08:45:10.920Z,6.18
2023-02-11T08:47:37.510Z,6.21
2023-02-11T08:50:05.312Z,5.99
2023-02-11T08:52:31.807Z,5.70
2023-02-11T08:54:58.740Z,5.54
2023-02-11T08:57:25.352Z,5.45
2023-02-11T08:59:51.944Z,5.33
2023-02-11T09:02:18.488Z,5.71
2023-02-11T09:04:45.082Z,5.80
2023-02-11T09:07:12.539Z,6.36
2023-02-11T09:09:39.171Z,5.73
2023-02-11T09:12:06.085Z,5.32
2023-02-11T09:14:32.706Z,6.16
2023-02-11T09:16:59.282Z,6.51
2023-02-11T09:19:25.837Z,6.29
2023-02-11T09:21:52.359Z,5.96
2023-02-11T09:24:19.406Z,5.66
2023-02-11T09:26:46.069Z,6.63
2023-02-11T09:29:13.056Z,6.69
2023-02-11T09:31:40.056Z,6.19
2023-02-11T09:34:06.874Z,6.24
2023-02-11T09:36:37.416Z,6.03
2023-02-11T09:39:06.203Z,6.12
2023-02-11T09:41:54.990Z,6.89
2023-02-11T09:44:25.113Z,6.21
2023-02-11T09:46:57.973Z,6.25
2023-02-11T09:49:34.773Z,6.51
2023-02-11T09:52:23.500Z,7.01
2023-02-11T09:55:01.985Z,7.25
2023-02-11T09:57:35.901Z,7.09
2023-02-11T10:00:15.901Z,6.77
2023-02-11T10:03:06.397Z,6.84
2023-02-11T10:06:16.848Z,6.72
2023-02-11T10:09:08.553Z,6.77
2023-02-11T10:11:55.514Z,8.44
2023-02-11T10:14:36.419Z,9.58
2023-02-11T10:17:15.129Z,9.81
2023-02-11T10:20:03.995Z,8.92
2023-02-11T10:22:34.919Z,8.19
2023-02-11T10:25:17.165Z,8.87
2023-02-11T10:27:43.710Z,8.82
2023-02-11T10:30:16.850Z,7.84
2023-02-11T10:32:49.487Z,7.63
2023-02-11T10:35:21.156Z,7.20
2023-02-11T10:37:48.747Z,7.26
2023-02-11T10:40:29.637Z,7.55
2023-02-11T10:43:00.592Z,7.54
2023-02-11T10:45:36.892Z,7.43
2023-02-11T10:48:06.270Z,7.74
2023-02-11T10:50:34.966Z,8.25
2023-02-11T10:53:20.703Z,7.84
2023-02-11T10:55:52.405Z,7.84
2023-02-11T10:58:26.498Z,8.49
2023-02-11T11:00:55.653Z,8.30
2023-02-11T11:03:25.931Z,7.71
2023-02-11T11:05:59.843Z,7.70
2023-02-11T11:08:42.447Z,7.59
2023-02-11T11:11:28.327Z,7.26
2023-02-11T11:14:03.258Z,7.31
2023-02-11T11:16:34.683Z,6.91
2023-02-11T11:19:07.252Z,7.26
2023-02-11T11:21:41.350Z,7.15
2023-02-11T11:24:21.370Z,7.42
2023-02-11T11:26:51.044Z,7.82
2023-02-11T11:29:22.332Z,7.68
2023-02-11T11:31:53.887Z,7.77
2023-02-11T11:34:33.300Z,7.81
2023-02-11T11:37:09.577Z,7.91
2023-02-11T11:39:36.380Z,7.88
2023-02-11T11:42:05.724Z,7.54
2023-02-11T11:44:36.658Z,7.89
2023-02-11T11:47:12.426Z,7.81
2023-02-11T11:49:48.812Z,7.87
2023-02-11T11:52:39.540Z,8.19
2023-02-11T11:55:22.049Z,7.70
2023-02-11T11:57:49.258Z,7.57
2023-02-11T12:00:31.347Z,7.94
2023-02-11T12:03:19.270Z,8.04
2023-02-11T12:06:04.604Z,8.06
2023-02-11T12:09:00.576Z,7.89
2023-02-11T12:11:48.728Z,7.86
2023-02-11T12:14:23.569Z,8.65
2023-02-11T12:17:02.350Z,8.84
2023-02-11T12:19:31.917Z,8.73
2023-02-11T12:22:17.071Z,8.76
2023-02-11T12:24:43.609Z,8.27
2023-02-11T12:27:21.467Z,8.28
2023-02-11T12:30:24.376Z,8.42
2023-02-11T12:33:08.315Z,8.12
2023-02-11T12:35:58.845Z,8.38
2023-02-11T12:38:51.787Z,8.65
2023-02-11T12:41:51.353Z,8.62
2023-02-11T12:44:29.808Z,7.97
2023-02-11T12:47:11.727Z,7.88
2023-02-11T12:49:55.242Z,8.06
2023-02-11T12:52:27.913Z,8.11
2023-02-11T12:55:26.815Z,8.00
2023-02-11T12:57:55.781Z,8.12
2023-02-11T13:00:26.673Z,8.43
2023-02-11T13:03:10.932Z,8.44
2023-02-11T13:05:52.700Z,8.56
2023-02-11T13:08:32.369Z,8.68
2023-02-11T13:11:03.779Z,8.61
2023-02-11T13:13:38.982Z,8.42
2023-02-11T13:16:13.319Z,8.93
2023-02-11T13:18:49.635Z,8.83
2023-02-11T13:21:16.452Z,8.99
2023-02-11T13:24:11.645Z,8.89
2023-02-11T13:26:49.961Z,9.00
2023-02-11T13:29:33.158Z,8.69
2023-02-11T13:32:19.929Z,8.70
2023-02-11T13:34:46.397Z,8.36
2023-02-11T13:37:21.197Z,8.35
2023-02-11T13:40:06.183Z,8.60
2023-02-11T13:42:44.723Z,8.45
2023-02-11T13:45:27.372Z,8.67
2023-02-11T13:47:58.363Z,8.65
2023-02-11T13:50:26.288Z,8.64
2023-02-11T13:53:01.332Z,8.96
2023-02-11T13:55:29.490Z,9.08
2023-02-11T13:58:08.292Z,9.33
2023-02-11T14:00:34.864Z,8.68
2023-02-11T14:03:29.190Z,8.73
2023-02-11T14:06:26.801Z,8.48
2023-02-11T14:09:08.936Z,8.50
2023-02-11T14:11:41.797Z,8.55
2023-02-11T14:14:17.506Z,8.52
2023-02-11T14:17:02.410Z,8.70
2023-02-11T14:19:37.984Z,8.63
2023-02-11T14:22:19.122Z,8.52
2023-02-11T14:24:59.600Z,9.18
2023-02-11T14:27:40.249Z,8.75
2023-02-11T14:30:39.204Z,8.81
2023-02-11T14:33:35.598Z,9.08
2023-02-11T14:36:28.564Z,9.11
2023-02-11T14:39:03.207Z,9.03
2023-02-11T14:41:31.996Z,9.02
2023-02-11T14:44:01.741Z,9.03
2023-02-11T14:46:32.887Z,9.06
2023-02-11T14:49:05.446Z,8.89
2023-02-11T14:51:34.832Z,8.84
2023-02-11T14:54:13.345Z,8.89
2023-02-11T14:56:40.081Z,9.05
2023-02-11T14:59:17.510Z,8.81
2023-02-11T15:01:48.741Z,9.20
2023-02-11T15:04:32.673Z,8.94
2023-02-11T15:07:11.141Z,8.94
2023-02-11T15:09:45.856Z,9.03
2023-02-11T15:12:32.662Z,8.62
2023-02-11T15:15:00.449Z,8.78
2023-02-11T15:17:31.729Z,8.82
2023-02-11T15:20:01.151Z,8.87
2023-02-11T15:22:36.544Z,8.85
2023-02-11T15:25:12.435Z,8.66
2023-02-11T15:27:51.496Z,8.69
2023-02-11T15:30:21.056Z,8.66
2023-02-11T15:33:02.956Z,8.90
2023-02-11T15:35:32.552Z,8.83
2023-02-11T15:37:59.695Z,8.74
2023-02-11T15:40:30.035Z,8.61
2023-02-11T15:43:04.881Z,8.98
2023-02-11T15:45:37.382Z,8.93
2023-02-11T15:48:10.613Z,8.83
2023-02-11T15:50:40.618Z,8.69
2023-02-11T15:53:33.090Z,8.85
2023-02-11T15:56:25.109Z,8.70
2023-02-11T15:58:55.306Z,8.98
2023-02-11T16:01:37.243Z,9.07
2023-02-11T16:04:05.306Z,8.88
2023-02-11T16:06:41.298Z,8.76
2023-02-11T16:09:13.776Z,8.82
2023-02-11T16:11:46.365Z,8.67
2023-02-11T16:14:29.460Z,8.71
2023-02-11T16:17:00.434Z,8.85
2023-02-11T16:19:28.378Z,8.90
2023-02-11T16:21:57.468Z,9.04
2023-02-11T16:24:31.804Z,8.93
2023-02-11T16:27:04.974Z,8.66
2023-02-11T16:29:35.210Z,8.71
2023-02-11T16:32:18.244Z,8.54
2023-02-11T16:34:44.911Z,8.46
2023-02-11T16:37:11.688Z,8.38
2023-02-11T16:39:38.440Z,8.23
2023-02-11T16:42:07.594Z,8.29
2023-02-11T16:44:35.081Z,8.33
2023-02-11T16:47:06.316Z,8.44
2023-02-11T16:49:36.960Z,8.34
2023-02-11T16:52:07.883Z,8.53
2023-02-11T16:54:34.795Z,8.54
2023-02-11T16:57:05.626Z,8.62
2023-02-11T16:59:32.241Z,8.52
2023-02-11T17:01:58.770Z,8.43
2023-02-11T17:04:28.249Z,8.25
2023-02-11T17:06:58.369Z,8.57
2023-02-11T17:09:30.488Z,8.59
2023-02-11T17:11:57.547Z,8.40
2023-02-11T17:14:24.327Z,8.29
2023-02-11T17:16:50.951Z,8.28
2023-02-11T17:19:22.366Z,8.38
2023-02-11T17:21:51.275Z,8.32
2023-02-11T17:24:19.348Z,8.36
2023-02-11T17:26:46.299Z,8.21
2023-02-11T17:29:16.246Z,8.41
2023-02-11T17:31:43.172Z,8.33
2023-02-11T17:34:10.981Z,8.10
2023-02-11T17:36:37.572Z,8.14
2023-02-11T17:39:07.692Z,8.23
2023-02-11T17:41:37.695Z,8.15
2023-02-11T17:44:05.364Z,8.02
2023-02-11T17:46:32.322Z,7.92
2023-02-11T17:48:59.496Z,8.15
2023-02-11T17:51:30.019Z,8.21
2023-02-11T17:54:02.793Z,7.98
2023-02-11T17:56:32.835Z,8.02
2023-02-11T17:58:59.655Z,8.11
2023-02-11T18:01:30.952Z,8.10
2023-02-11T18:03:57.684Z,8.17
2023-02-11T18:06:24.744Z,8.10
2023-02-11T18:08:51.247Z,8.05
2023-02-11T18:11:18.036Z,8.29
2023-02-11T18:13:45.352Z,8.22
2023-02-11T18:16:15.886Z,8.16
2023-02-11T18:18:43.187Z,8.04
2023-02-11T18:21:21.070Z,7.94
2023-02-11T18:23:50.089Z,7.81
2023-02-11T18:26:20.365Z,7.82
2023-02-11T18:28:47.906Z,7.71
2023-02-11T18:31:14.874Z,7.94
2023-02-11T18:33:42.379Z,7.90
2023-02-11T18:36:14.213Z,8.06
2023-02-11T18:38:41.809Z,8.00
2023-02-11T18:41:08.365Z,7.90
2023-02-11T18:43:35.790Z,7.85
2023-02-11T18:46:07.398Z,7.90
2023-02-11T18:48:34.024Z,7.85
2023-02-11T18:51:00.571Z,7.82
2023-02-11T18:53:27.141Z,7.90
2023-02-11T18:55:54.364Z,7.96
2023-02-11T18:58:23.952Z,7.96
2023-02-11T19:00:50.609Z,7.90
2023-02-11T19:03:17.255Z,8.01
2023-02-11T19:05:49.090Z,7.90
2023-02-11T19:08:16.986Z,8.06
2023-02-11T19:10:46.383Z,8.07
2023-02-11T19:13:13.376Z,8.05
2023-02-11T19:15:44.457Z,8.15
2023-02-11T19:18:12.396Z,8.03
2023-02-11T19:20:43.486Z,8.14
2023-02-11T19:23:10.892Z,8.36
2023-02-11T19:25:44.437Z,8.30
2023-02-11T19:28:13.272Z,8.56
2023-02-11T19:30:40.109Z,8.39
2023-02-11T19:33:08.975Z,7.98
2023-02-11T19:35:36.765Z,8.01
2023-02-11T19:38:06.347Z,8.18
2023-02-11T19:40:33.075Z,7.99
2023-02-11T19:43:00.143Z,8.01
2023-02-11T19:45:27.212Z,8.07
2023-02-11T19:47:57.422Z,7.84
2023-02-11T19:50:24.371Z,7.85
2023-02-11T19:52:50.969Z,8.08
2023-02-11T19:55:17.602Z,7.92
2023-02-11T19:57:44.280Z,8.19
2023-02-11T20:00:11.324Z,7.98
2023-02-11T20:02:39.145Z,8.23
2023-02-11T20:05:06.437Z,8.23
2023-02-11T20:07:33.037Z,7.98
2023-02-11T20:09:59.902Z,7.99
2023-02-11T20:12:26.453Z,8.32
2023-02-11T20:14:53.053Z,8.27
2023-02-11T20:17:19.539Z,8.35
2023-02-11T20:19:46.214Z,8.18
2023-02-11T20:22:12.806Z,8.31
2023-02-11T20:24:39.394Z,8.35
2023-02-11T20:27:08.368Z,8.45
2023-02-11T20:29:35.028Z,8.43
2023-02-11T20:32:02.945Z,8.13
2023-02-11T20:34:29.593Z,8.20
2023-02-11T20:36:56.368Z,8.15
2023-02-11T20:39:25.003Z,8.28
2023-02-11T20:41:53.221Z,8.24
2023-02-11T20:44:23.852Z,8.39
2023-02-11T20:46:51.732Z,8.01
2023-02-11T20:49:20.621Z,8.31
2023-02-11T20:51:48.016Z,8.16
2023-02-11T20:54:17.720Z,8.16
2023-02-11T20:56:47.832Z,8.00
2023-02-11T20:59:16.651Z,8.22
2023-02-11T21:01:46.343Z,8.23
2023-02-11T21:04:18.809Z,8.26
2023-02-11T21:06:50.398Z,8.17
2023-02-11T21:09:22.644Z,8.06
2023-02-11T21:11:53.752Z,8.04
2023-02-11T21:14:22.814Z,8.26
2023-02-11T21:16:49.720Z,8.24
2023-02-11T21:19:16.823Z,8.13
2023-02-11T21:21:43.599Z,8.37
2023-02-11T21:24:11.152Z,8.35
2023-02-11T21:26:38.150Z,8.23
2023-02-11T21:29:06.043Z,8.33
2023-02-11T21:31:34.629Z,8.27
2023-02-11T21:34:01.753Z,8.19
2023-02-11T21:36:29.371Z,8.34
2023-02-11T21:38:57.524Z,8.35
2023-02-11T21:41:24.766Z,8.02
2023-02-11T21:43:52.093Z,8.31
2023-02-11T21:46:20.617Z,8.46
2023-02-11T21:48:48.412Z,8.48
2023-02-11T21:51:17.905Z,8.48
2023-02-11T21:53:44.620Z,8.19
2023-02-11T21:56:14.359Z,8.39
2023-02-11T21:58:41.112Z,8.43
2023-02-11T22:01:14.859Z,8.53
2023-02-11T22:03:41.824Z,8.48
2023-02-11T22:06:10.441Z,8.48
2023-02-11T22:08:37.749Z,8.50
2023-02-11T22:11:06.139Z,8.45
2023-02-11T22:13:34.080Z,8.48
2023-02-11T22:16:02.455Z,8.43
2023-02-11T22:18:32.854Z,8.45
2023-02-11T22:21:05.298Z,8.33
2023-02-11T22:23:31.936Z,8.42
2023-02-11T22:25:58.728Z,8.41
2023-02-11T22:28:26.122Z,8.44
2023-02-11T22:30:54.681Z,8.47
2023-02-11T22:33:22.311Z,8.48
2023-02-11T22:35:48.942Z,8.39
2023-02-11T22:38:15.835Z,8.43
2023-02-11T22:40:43.282Z,8.05
2023-02-11T22:43:10.228Z,8.26
2023-02-11T22:45:36.971Z,8.36
2023-02-11T22:48:03.670Z,8.11
2023-02-11T22:50:30.590Z,8.31
2023-02-11T22:52:57.633Z,8.36
2023-02-11T22:55:24.283Z,8.17
2023-02-11T22:57:50.775Z,8.33
2023-02-11T23:00:17.876Z,8.07
2023-02-11T23:02:44.531Z,7.47
2023-02-11T23:05:11.158Z,7.88
2023-02-11T23:07:37.696Z,7.98
2023-02-11T23:10:04.718Z,8.17
2023-02-11T23:12:31.421Z,8.13
2023-02-11T23:14:58.063Z,8.12
2023-02-11T23:17:24.944Z,8.32
2023-02-11T23:19:51.602Z,7.90
2023-02-11T23:22:18.187Z,8.20
2023-02-11T23:24:44.757Z,8.20
2023-02-11T23:27:11.358Z,8.15
2023-02-11T23:29:37.949Z,7.88
2023-02-11T23:32:05.294Z,8.16
2023-02-11T23:34:31.836Z,8.32
2023-02-11T23:36:59.570Z,8.21
2023-02-11T23:39:26.306Z,8.34
2023-02-11T23:41:58.841Z,8.42
2023-02-11T23:44:25.960Z,8.15
2023-02-11T23:46:52.516Z,8.08
2023-02-11T23:49:19.104Z,8.03
2023-02-11T23:51:45.777Z,8.27
2023-02-11T23:54:13.815Z,8.34
2023-02-11T23:56:42.234Z,8.35
2023-02-11T23:59:09.031Z,8.36
